createdAt,value
2016-06-04T00:00:33.776Z,17.37
2016-06-04T00:01:33.778Z,17.36
2016-06-04T00:03:47.881Z,17.33
2016-06-04T00:04:34.069Z,17.31
2016-06-04T00:05:34.024Z,17.25
2016-06-04T00:06:34.074Z,17.31
2016-06-04T00:07:33.858Z,17.3
2016-06-04T00:08:33.891Z,17.34
2016-06-04T00:09:34.082Z,17.16
2016-06-04T00:10:34.491Z,17.22
2016-06-04T00:11:33.759Z,17.22
2016-06-04T00:12:47.983Z,17.22
2016-06-04T00:13:33.936Z,17.19
2016-06-04T00:14:33.938Z,17.19
2016-06-04T00:15:47.990Z,17.16
2016-06-04T00:17:34.353Z,17.15
2016-06-04T00:18:34.153Z,17.18
2016-06-04T00:19:34.373Z,17.18
2016-06-04T00:20:34.049Z,17.19
2016-06-04T00:21:34.614Z,17.19
2016-06-04T00:22:34.023Z,17.15
2016-06-04T00:23:33.994Z,17.15
2016-06-04T00:24:34.231Z,17.12
2016-06-04T00:25:34.015Z,17.16
2016-06-04T00:26:34.550Z,17.12
2016-06-04T00:27:48.100Z,17.15
2016-06-04T00:28:34.460Z,17.08
2016-06-04T00:29:34.058Z,17.04
2016-06-04T00:30:34.060Z,17.06
2016-06-04T00:31:34.063Z,17.07
2016-06-04T00:32:34.065Z,17.07
2016-06-04T00:33:34.083Z,16.98
2016-06-04T00:34:34.102Z,17.07
2016-06-04T00:36:34.091Z,17.03
2016-06-04T00:37:34.563Z,17.07
2016-06-04T00:39:34.319Z,16.94
2016-06-04T00:40:34.149Z,16.94
2016-06-04T00:41:34.152Z,17.08
2016-06-04T00:42:34.358Z,17.07
2016-06-04T00:43:34.188Z,17.11
2016-06-04T00:44:34.394Z,17.08
2016-06-04T00:45:34.615Z,17.07
2016-06-04T00:46:34.588Z,17.11
2016-06-04T00:47:34.402Z,17.11
2016-06-04T00:48:34.437Z,17.08
2016-06-04T00:49:34.439Z,17.08
2016-06-04T00:50:34.239Z,17.03
2016-06-04T00:51:34.429Z,17.12
2016-06-04T00:53:34.498Z,17.11
2016-06-04T00:54:34.265Z,17.08
2016-06-04T00:55:34.470Z,17.15
2016-06-04T00:56:34.317Z,17.22
2016-06-04T00:57:34.289Z,17.18
2016-06-04T00:58:34.323Z,17.15
2016-06-04T00:59:34.321Z,17.16
2016-06-04T01:00:34.562Z,17.07
2016-06-04T01:01:34.409Z,17.11
2016-06-04T01:02:34.462Z,17.12
2016-06-04T01:03:34.482Z,17.04
2016-06-04T01:04:34.729Z,17.15
2016-06-04T01:05:34.525Z,17.14
2016-06-04T01:06:34.556Z,17.16
2016-06-04T01:07:34.570Z,17.08
2016-06-04T01:08:34.600Z,17.14
2016-06-04T01:09:34.611Z,17.11
2016-06-04T01:10:34.853Z,17.16
2016-06-04T01:11:34.532Z,17.14
2016-06-04T01:12:34.648Z,17.04
2016-06-04T01:13:34.374Z,17.11
2016-06-04T01:14:34.911Z,17.08
2016-06-04T01:15:34.681Z,17.04
2016-06-04T01:16:35.153Z,17.08
2016-06-04T01:17:34.939Z,17
2016-06-04T01:18:34.740Z,16.96
2016-06-04T01:19:34.993Z,17.04
2016-06-04T01:20:34.996Z,17
2016-06-04T01:21:34.782Z,17.03
2016-06-04T01:22:34.785Z,17.04
2016-06-04T01:23:34.803Z,16.96
2016-06-04T01:24:34.806Z,17.06
2016-06-04T01:25:34.981Z,17.04
2016-06-04T01:27:35.237Z,17.04
2016-06-04T01:28:34.850Z,17.04
2016-06-04T01:29:35.274Z,17.03
2016-06-04T01:31:35.062Z,17.11
2016-06-04T01:32:34.876Z,16.97
2016-06-04T01:33:34.879Z,17
2016-06-04T01:34:35.491Z,16.98
2016-06-04T01:35:34.448Z,16.94
2016-06-04T01:36:35.278Z,16.94
2016-06-04T01:37:34.421Z,17
2016-06-04T01:38:35.721Z,16.98
2016-06-04T01:39:34.973Z,17.08
2016-06-04T01:40:35.336Z,16.96
2016-06-04T01:41:35.636Z,16.98
2016-06-04T01:42:35.169Z,16.96
2016-06-04T01:43:35.359Z,16.98
2016-06-04T01:44:34.987Z,17
2016-06-04T01:45:34.974Z,17.11
2016-06-04T01:46:34.977Z,17.07
2016-06-04T01:47:49.545Z,17.08
2016-06-04T01:48:35.014Z,17.03
2016-06-04T01:49:34.985Z,17.11
2016-06-04T01:50:35.019Z,17.06
2016-06-04T01:51:35.224Z,17.07
2016-06-04T01:52:36.040Z,17.11
2016-06-04T01:53:35.043Z,17.06
2016-06-04T01:55:49.363Z,17.04
2016-06-04T01:56:49.366Z,17.01
2016-06-04T01:57:35.069Z,17.11
2016-06-04T01:58:35.088Z,17.04
2016-06-04T01:59:35.715Z,16.94
2016-06-04T02:00:35.107Z,17.06
2016-06-04T02:01:35.721Z,17.04
2016-06-04T02:02:35.129Z,16.97
2016-06-04T02:04:35.198Z,17.11
2016-06-04T02:05:35.403Z,17.07
2016-06-04T02:06:49.299Z,16.97
2016-06-04T02:07:35.159Z,17.07
2016-06-04T02:09:35.194Z,17.04
2016-06-04T02:10:49.263Z,17.03
2016-06-04T02:11:49.811Z,17.08
2016-06-04T02:12:35.218Z,17.07
2016-06-04T02:14:35.474Z,16.96
2016-06-04T02:15:35.258Z,17.01
2016-06-04T02:16:35.275Z,16.97
2016-06-04T02:17:35.294Z,16.94
2016-06-04T02:18:35.281Z,16.94
2016-06-04T02:19:35.488Z,17.08
2016-06-04T02:20:35.286Z,16.97
2016-06-04T02:21:35.461Z,16.97
2016-06-04T02:23:35.733Z,16.96
2016-06-04T02:24:35.533Z,17.01
2016-06-04T02:25:35.613Z,16.97
2016-06-04T02:26:35.365Z,17.03
2016-06-04T02:27:34.884Z,17.04
2016-06-04T02:28:35.808Z,16.91
2016-06-04T02:29:35.529Z,16.97
2016-06-04T02:30:49.488Z,16.96
2016-06-04T02:31:35.613Z,17
2016-06-04T02:32:35.398Z,16.98
2016-06-04T02:33:36.025Z,17.06
2016-06-04T02:34:49.702Z,16.97
2016-06-04T02:35:35.656Z,16.98
2016-06-04T02:36:35.440Z,16.98
2016-06-04T02:37:35.864Z,16.97
2016-06-04T02:38:35.663Z,16.96
2016-06-04T02:39:35.495Z,16.96
2016-06-04T02:40:49.750Z,17.07
2016-06-04T02:41:35.781Z,16.93
2016-06-04T02:42:35.487Z,17
2016-06-04T02:43:35.239Z,16.94
2016-06-04T02:44:35.695Z,16.93
2016-06-04T02:46:35.966Z,16.97
2016-06-04T02:47:35.578Z,16.97
2016-06-04T02:48:35.736Z,16.91
2016-06-04T02:49:35.552Z,16.97
2016-06-04T02:50:35.571Z,16.97
2016-06-04T02:51:35.589Z,16.94
2016-06-04T02:52:35.591Z,16.91
2016-06-04T02:53:35.594Z,16.93
2016-06-04T02:55:35.460Z,16.98
2016-06-04T02:57:35.808Z,16.96
2016-06-04T02:58:35.826Z,17.01
2016-06-04T02:59:35.829Z,16.97
2016-06-04T03:00:35.848Z,16.91
2016-06-04T03:01:35.835Z,16.91
2016-06-04T03:02:35.649Z,17.01
2016-06-04T03:03:36.074Z,16.98
2016-06-04T03:04:49.752Z,16.97
2016-06-04T03:05:49.754Z,16.98
2016-06-04T03:06:50.007Z,16.98
2016-06-04T03:07:50.198Z,16.94
2016-06-04T03:08:35.948Z,17.01
2016-06-04T03:09:35.918Z,17.01
2016-06-04T03:10:35.937Z,16.97
2016-06-04T03:11:35.752Z,16.97
2016-06-04T03:12:35.739Z,17
2016-06-04T03:13:35.773Z,17.03
2016-06-04T03:16:36.172Z,16.97
2016-06-04T03:17:35.815Z,16.98
2016-06-04T03:18:35.817Z,16.98
2016-06-04T03:19:35.821Z,16.94
2016-06-04T03:20:35.823Z,16.94
2016-06-04T03:21:35.825Z,16.94
2016-06-04T03:22:35.829Z,16.96
2016-06-04T03:24:35.866Z,17.03
2016-06-04T03:25:36.055Z,16.89
2016-06-04T03:26:50.014Z,16.98
2016-06-04T03:27:36.092Z,17
2016-06-04T03:28:50.176Z,16.94
2016-06-04T03:29:35.910Z,16.89
2016-06-04T03:30:36.116Z,16.89
2016-06-04T03:31:35.932Z,16.93
2016-06-04T03:32:36.122Z,16.93
2016-06-04T03:33:50.205Z,16.94
2016-06-04T03:34:36.346Z,16.96
2016-06-04T03:35:36.176Z,16.93
2016-06-04T03:36:36.148Z,16.94
2016-06-04T03:37:35.947Z,16.91
2016-06-04T03:38:36.168Z,16.96
2016-06-04T03:39:36.374Z,16.98
2016-06-04T03:40:36.096Z,16.96
2016-06-04T03:41:35.864Z,16.89
2016-06-04T03:42:36.242Z,16.91
2016-06-04T03:43:36.009Z,16.91
2016-06-04T03:44:36.028Z,16.97
2016-06-04T03:45:50.128Z,16.94
2016-06-04T03:46:36.284Z,16.96
2016-06-04T03:47:36.084Z,16.91
2016-06-04T03:48:36.117Z,16.94
2016-06-04T03:49:35.933Z,16.93
2016-06-04T03:50:35.919Z,17
2016-06-04T03:51:35.625Z,16.89
2016-06-04T03:52:36.080Z,16.94
2016-06-04T03:53:36.100Z,17
2016-06-04T03:54:36.493Z,17.01
2016-06-04T03:55:50.607Z,17
2016-06-04T03:56:37.185Z,17
2016-06-04T03:58:50.225Z,17.01
2016-06-04T03:59:50.665Z,16.96
2016-06-04T04:00:50.480Z,16.97
2016-06-04T04:01:50.858Z,16.93
2016-06-04T04:02:36.233Z,17.04
2016-06-04T04:03:36.439Z,17.03
2016-06-04T04:04:50.554Z,17.03
2016-06-04T04:05:36.241Z,17.03
2016-06-04T04:06:36.244Z,16.97
2016-06-04T04:09:36.501Z,17.01
2016-06-04T04:10:37.270Z,17.08
2016-06-04T04:12:36.917Z,17.07
2016-06-04T04:13:50.578Z,17.07
2016-06-04T04:14:36.218Z,17.08
2016-06-04T04:15:36.331Z,17.12
2016-06-04T04:16:36.302Z,17.16
2016-06-04T04:17:36.555Z,17.14
2016-06-04T04:18:36.433Z,17.08
2016-06-04T04:19:36.528Z,17.15
2016-06-04T04:20:36.750Z,17.15
2016-06-04T04:21:36.378Z,17.18
2016-06-04T04:22:37.209Z,17.19
2016-06-04T04:23:36.805Z,17.22
2016-06-04T04:24:36.402Z,17.12
2016-06-04T04:25:36.811Z,17.08
2016-06-04T04:26:38.017Z,17.18
2016-06-04T04:27:36.816Z,17.25
2016-06-04T04:28:36.850Z,17.22
2016-06-04T04:29:36.416Z,17.22
2016-06-04T04:30:36.433Z,17.21
2016-06-04T04:31:36.685Z,17.23
2016-06-04T04:32:36.470Z,17.22
2016-06-04T04:33:36.863Z,17.18
2016-06-04T04:34:37.069Z,17.22
2016-06-04T04:35:36.478Z,17.22
2016-06-04T04:36:36.481Z,17.3
2016-06-04T04:37:36.499Z,17.26
2016-06-04T04:38:36.532Z,17.31
2016-06-04T04:39:36.521Z,17.36
2016-06-04T04:40:36.757Z,17.38
2016-06-04T04:41:36.588Z,17.33
2016-06-04T04:42:36.528Z,17.34
2016-06-04T04:43:36.546Z,17.34
2016-06-04T04:44:36.565Z,17.34
2016-06-04T04:45:36.615Z,17.33
2016-06-04T04:46:50.867Z,17.37
2016-06-04T04:47:51.292Z,17.43
2016-06-04T04:48:36.794Z,17.46
2016-06-04T04:49:37.250Z,17.43
2016-06-04T04:50:36.628Z,17.49
2016-06-04T04:51:36.662Z,17.52
2016-06-04T04:52:36.664Z,17.55
2016-06-04T04:53:36.667Z,17.56
2016-06-04T04:54:37.092Z,17.58
2016-06-04T04:56:37.097Z,17.63
2016-06-04T04:57:36.677Z,17.63
2016-06-04T04:59:36.714Z,17.62
2016-06-04T05:00:36.716Z,17.62
2016-06-04T05:01:36.735Z,17.64
2016-06-04T05:02:36.941Z,17.64
2016-06-04T05:03:36.960Z,17.62
2016-06-04T05:04:36.963Z,17.54
2016-06-04T05:05:36.340Z,17.55
2016-06-04T05:06:50.874Z,17.58
2016-06-04T05:07:36.815Z,17.56
2016-06-04T05:08:37.020Z,17.62
2016-06-04T05:09:37.007Z,17.56
2016-06-04T05:10:36.854Z,17.63
2016-06-04T05:11:37.090Z,17.51
2016-06-04T05:12:37.093Z,17.52
2016-06-04T05:13:36.893Z,17.55
2016-06-04T05:14:37.552Z,17.62
2016-06-04T05:15:36.882Z,17.54
2016-06-04T05:16:36.916Z,17.62
2016-06-04T05:17:36.920Z,17.59
2016-06-04T05:18:37.140Z,17.7
2016-06-04T05:19:37.143Z,17.68
2016-06-04T05:20:36.943Z,17.72
2016-06-04T05:21:36.946Z,17.71
2016-06-04T05:22:36.933Z,17.75
2016-06-04T05:23:37.169Z,17.68
2016-06-04T05:24:37.001Z,17.81
2016-06-04T05:25:37.003Z,17.79
2016-06-04T05:26:37.209Z,17.78
2016-06-04T05:27:37.649Z,17.79
2016-06-04T05:28:36.996Z,17.78
2016-06-04T05:29:37.249Z,17.78
2016-06-04T05:30:37.469Z,17.82
2016-06-04T05:31:37.035Z,17.7
2016-06-04T05:32:37.038Z,17.78
2016-06-04T05:33:37.260Z,17.78
2016-06-04T05:34:37.262Z,17.78
2016-06-04T05:36:37.079Z,17.81
2016-06-04T05:37:37.083Z,17.95
2016-06-04T05:38:37.523Z,17.93
2016-06-04T05:39:37.916Z,17.86
2016-06-04T05:40:37.841Z,17.92
2016-06-04T05:41:36.984Z,17.92
2016-06-04T05:42:37.127Z,17.95
2016-06-04T05:43:37.161Z,18.02
2016-06-04T05:44:37.148Z,18.07
2016-06-04T05:45:37.370Z,18.14
2016-06-04T05:46:37.200Z,18.18
2016-06-04T05:47:37.843Z,18.17
2016-06-04T05:48:37.643Z,18.25
2016-06-04T05:50:51.305Z,18.35
2016-06-04T05:51:51.308Z,18.18
2016-06-04T05:52:37.248Z,18.26
2016-06-04T05:53:37.703Z,18.21
2016-06-04T05:54:37.737Z,18.35
2016-06-04T05:55:37.287Z,18.25
2016-06-04T05:56:38.102Z,18.21
2016-06-04T05:57:51.777Z,18.23
2016-06-04T05:58:37.530Z,18.3
2016-06-04T05:59:37.330Z,18.32
2016-06-04T06:00:37.347Z,18.25
2016-06-04T06:01:37.335Z,18.35
2016-06-04T06:02:37.337Z,18.33
2016-06-04T06:03:37.356Z,18.48
2016-06-04T06:04:37.389Z,18.54
2016-06-04T06:05:37.580Z,18.58
2016-06-04T06:06:38.019Z,18.62
2016-06-04T06:07:51.694Z,18.72
2016-06-04T06:08:37.649Z,18.7
2016-06-04T06:09:37.871Z,18.7
2016-06-04T06:10:37.515Z,18.81
2016-06-04T06:11:38.315Z,18.85
2016-06-04T06:12:37.582Z,18.87
2016-06-04T06:13:37.476Z,18.92
2016-06-04T06:14:37.666Z,19.06
2016-06-04T06:15:37.482Z,19.13
2016-06-04T06:16:37.500Z,19.26
2016-06-04T06:17:37.503Z,19.36
2016-06-04T06:18:38.177Z,19.41
2016-06-04T06:19:37.929Z,19.5
2016-06-04T06:20:38.542Z,19.59
2016-06-04T06:21:37.967Z,19.66
2016-06-04T06:23:37.597Z,19.65
2016-06-04T06:24:37.614Z,19.73
2016-06-04T06:25:38.195Z,19.62
2016-06-04T06:26:37.215Z,19.68
2016-06-04T06:27:37.639Z,19.62
2016-06-04T06:29:37.706Z,19.68
2016-06-04T06:30:37.663Z,19.66
2016-06-04T06:31:51.961Z,19.61
2016-06-04T06:32:38.105Z,19.66
2016-06-04T06:33:37.717Z,19.66
2016-06-04T06:34:52.064Z,19.73
2016-06-04T06:35:37.957Z,19.65
2016-06-04T06:36:38.350Z,19.71
2016-06-04T06:37:37.494Z,19.8
2016-06-04T06:38:38.371Z,19.8
2016-06-04T06:39:38.202Z,19.83
2016-06-04T06:40:37.674Z,19.92
2016-06-04T06:41:38.457Z,19.95
2016-06-04T06:43:52.291Z,19.92
2016-06-04T06:44:38.465Z,19.94
2016-06-04T06:45:37.874Z,19.92
2016-06-04T06:46:37.862Z,19.95
2016-06-04T06:47:37.849Z,19.88
2016-06-04T06:48:52.148Z,19.92
2016-06-04T06:49:37.901Z,19.91
2016-06-04T06:50:38.309Z,19.91
2016-06-04T06:51:38.110Z,19.78
2016-06-04T06:52:37.940Z,19.88
2016-06-04T06:53:38.131Z,19.81
2016-06-04T06:54:52.023Z,19.83
2016-06-04T06:55:39.026Z,19.81
2016-06-04T06:56:37.983Z,19.71
2016-06-04T06:57:37.969Z,19.73
2016-06-04T06:58:38.003Z,19.66
2016-06-04T06:59:38.069Z,19.71
2016-06-04T07:00:38.212Z,19.76
2016-06-04T07:02:38.030Z,19.73
2016-06-04T07:03:38.048Z,19.63
2016-06-04T07:04:52.144Z,19.59
2016-06-04T07:05:38.725Z,19.56
2016-06-04T07:06:52.322Z,19.56
2016-06-04T07:07:52.372Z,19.55
2016-06-04T07:08:38.124Z,19.55
2016-06-04T07:09:38.142Z,19.51
2016-06-04T07:10:38.160Z,19.59
2016-06-04T07:11:38.741Z,19.48
2016-06-04T07:12:38.150Z,19.56
2016-06-04T07:13:38.481Z,19.55
2016-06-04T07:14:38.578Z,19.55
2016-06-04T07:15:38.190Z,19.54
2016-06-04T07:16:38.411Z,19.61
2016-06-04T07:17:38.820Z,19.65
2016-06-04T07:18:38.245Z,19.63
2016-06-04T07:19:38.279Z,19.62
2016-06-04T07:20:38.453Z,19.71
2016-06-04T07:23:38.274Z,19.71
2016-06-04T07:24:39.339Z,19.76
2016-06-04T07:25:38.138Z,19.77
2016-06-04T07:26:38.454Z,19.66
2016-06-04T07:27:38.159Z,19.68
2016-06-04T07:28:38.412Z,19.68
2016-06-04T07:29:38.540Z,19.78
2016-06-04T07:30:38.386Z,19.74
2016-06-04T07:31:38.358Z,19.76
2016-06-04T07:32:38.375Z,19.8
2016-06-04T07:33:38.472Z,19.8
2016-06-04T07:34:38.413Z,19.83
2016-06-04T07:35:38.416Z,19.78
2016-06-04T07:36:38.652Z,19.84
2016-06-04T07:37:38.436Z,19.8
2016-06-04T07:38:38.127Z,19.87
2016-06-04T07:39:38.474Z,19.91
2016-06-04T07:40:38.507Z,19.92
2016-06-04T07:41:39.197Z,19.96
2016-06-04T07:42:38.200Z,19.98
2016-06-04T07:43:38.500Z,19.99
2016-06-04T07:44:38.705Z,19.83
2016-06-04T07:45:38.989Z,20.06
2016-06-04T07:46:38.554Z,19.98
2016-06-04T07:47:52.166Z,20.02
2016-06-04T07:48:38.576Z,20.06
2016-06-04T07:49:38.453Z,20.13
2016-06-04T07:50:38.503Z,20.05
2016-06-04T07:51:38.802Z,20.16
2016-06-04T07:52:38.617Z,20.11
2016-06-04T07:53:38.651Z,20.17
2016-06-04T07:54:38.653Z,20.2
2016-06-04T07:55:38.860Z,20.2
2016-06-04T07:56:39.300Z,20.29
2016-06-04T07:57:38.912Z,20.26
2016-06-04T07:58:38.540Z,20.38
2016-06-04T07:59:52.777Z,20.33
2016-06-04T08:00:38.748Z,20.38
2016-06-04T08:01:38.923Z,20.39
2016-06-04T08:02:38.753Z,20.38
2016-06-04T08:03:38.725Z,20.48
2016-06-04T08:04:39.009Z,20.47
2016-06-04T08:05:38.949Z,20.42
2016-06-04T08:06:38.780Z,20.5
2016-06-04T08:07:38.783Z,20.57
2016-06-04T08:08:39.442Z,20.55
2016-06-04T08:09:39.038Z,20.51
2016-06-04T08:10:39.666Z,20.51
2016-06-04T08:11:38.824Z,20.64
2016-06-04T08:12:53.702Z,20.64
2016-06-04T08:13:39.861Z,20.7
2016-06-04T08:14:38.895Z,20.76
2016-06-04T08:15:39.102Z,20.73
2016-06-04T08:16:38.901Z,20.77
2016-06-04T08:17:38.904Z,20.77
2016-06-04T08:18:39.124Z,20.82
2016-06-04T08:19:39.159Z,20.85
2016-06-04T08:20:38.474Z,20.91
2016-06-04T08:21:39.398Z,20.82
2016-06-04T08:22:39.167Z,20.95
2016-06-04T08:23:38.981Z,20.95
2016-06-04T08:24:39.188Z,20.95
2016-06-04T08:25:53.440Z,20.99
2016-06-04T08:26:40.787Z,21.06
2016-06-04T08:27:39.071Z,20.99
2016-06-04T08:28:39.042Z,21.03
2016-06-04T08:29:38.889Z,21.12
2016-06-04T08:30:39.063Z,21.16
2016-06-04T08:31:53.159Z,21.21
2016-06-04T08:32:39.116Z,21.22
2016-06-04T08:33:39.305Z,21.27
2016-06-04T08:34:39.122Z,21.34
2016-06-04T08:35:39.155Z,21.34
2016-06-04T08:36:41.422Z,21.37
2016-06-04T08:37:39.160Z,21.4
2016-06-04T08:38:39.585Z,21.44
2016-06-04T08:39:39.571Z,21.46
2016-06-04T08:40:39.183Z,21.5
2016-06-04T08:41:39.655Z,21.43
2016-06-04T08:42:39.251Z,21.46
2016-06-04T08:43:39.238Z,21.53
2016-06-04T08:45:53.541Z,21.67
2016-06-04T08:46:39.263Z,21.61
2016-06-04T08:47:39.281Z,21.65
2016-06-04T08:48:39.315Z,21.75
2016-06-04T08:49:39.958Z,21.68
2016-06-04T08:50:53.585Z,21.79
2016-06-04T08:51:39.745Z,21.77
2016-06-04T08:52:39.373Z,21.84
2016-06-04T08:53:39.562Z,21.86
2016-06-04T08:54:39.393Z,21.86
2016-06-04T08:55:39.381Z,21.8
2016-06-04T08:56:39.398Z,21.9
2016-06-04T08:57:39.620Z,21.83
2016-06-04T08:58:39.686Z,21.82
2016-06-04T08:59:39.844Z,21.92
2016-06-04T09:00:39.472Z,21.92
2016-06-04T09:01:39.475Z,21.96
2016-06-04T09:02:39.493Z,22.05
2016-06-04T09:03:39.558Z,22.05
2016-06-04T09:04:39.498Z,21.99
2016-06-04T09:05:39.736Z,22.07
2016-06-04T09:06:39.989Z,22.02
2016-06-04T09:07:39.756Z,22.02
2016-06-04T09:08:39.572Z,22.03
2016-06-04T09:09:53.841Z,22.17
2016-06-04T09:12:40.020Z,22.25
2016-06-04T09:13:53.726Z,22.35
2016-06-04T09:14:39.635Z,22.39
2016-06-04T09:15:41.668Z,22.37
2016-06-04T09:16:40.469Z,22.33
2016-06-04T09:17:54.393Z,22.31
2016-06-04T09:18:39.707Z,22.24
2016-06-04T09:19:40.508Z,22.25
2016-06-04T09:20:41.495Z,22.25
2016-06-04T09:21:39.935Z,22.31
2016-06-04T09:22:53.844Z,22.39
2016-06-04T09:24:39.771Z,22.25
2016-06-04T09:25:41.821Z,22.39
2016-06-04T09:26:54.104Z,22.3
2016-06-04T09:27:40.014Z,22.36
2016-06-04T09:28:40.344Z,22.36
2016-06-04T09:29:40.066Z,22.36
2016-06-04T09:30:39.881Z,22.4
2016-06-04T09:31:39.867Z,22.39
2016-06-04T09:33:40.499Z,22.42
2016-06-04T09:34:39.439Z,22.51
2016-06-04T09:35:54.207Z,22.54
2016-06-04T09:36:54.241Z,22.61
2016-06-04T09:37:54.447Z,22.64
2016-06-04T09:38:39.997Z,22.7
2016-06-04T09:39:39.999Z,22.82
2016-06-04T09:40:39.986Z,22.79
2016-06-04T09:41:39.989Z,22.88
2016-06-04T09:42:40.148Z,23.02
2016-06-04T09:43:40.353Z,22.95
2016-06-04T09:44:40.481Z,23.02
2016-06-04T09:45:54.530Z,23
2016-06-04T09:47:40.099Z,23.07
2016-06-04T09:48:40.116Z,23.04
2016-06-04T09:49:40.338Z,23.09
2016-06-04T09:50:54.154Z,23.16
2016-06-04T09:51:40.375Z,23.16
2016-06-04T09:53:40.192Z,23.28
2016-06-04T09:54:40.649Z,23.2
2016-06-04T09:55:54.682Z,23.25
2016-06-04T09:56:40.217Z,23.13
2016-06-04T09:57:40.859Z,23.27
2016-06-04T09:58:40.660Z,23.33
2016-06-04T09:59:40.678Z,23.46
2016-06-04T10:00:40.462Z,23.4
2016-06-04T10:01:40.323Z,23.53
2016-06-04T10:02:40.279Z,23.57
2016-06-04T10:03:54.407Z,23.66
2016-06-04T10:04:40.723Z,23.68
2016-06-04T10:06:40.648Z,23.79
2016-06-04T10:07:54.725Z,23.97
2016-06-04T10:08:54.756Z,24.05
2016-06-04T10:10:40.774Z,24.31
2016-06-04T10:11:40.443Z,24.46
2016-06-04T10:12:40.800Z,24.62
2016-06-04T10:13:40.359Z,24.68
2016-06-04T10:14:40.653Z,24.77
2016-06-04T10:15:40.896Z,24.91
2016-06-04T10:16:40.699Z,25.08
2016-06-04T10:17:40.938Z,25.27
2016-06-04T10:18:40.741Z,25.36
2016-06-04T10:19:40.639Z,25.4
2016-06-04T10:20:40.816Z,25.54
2016-06-04T10:21:41.929Z,25.7
2016-06-04T10:22:40.667Z,25.83
2016-06-04T10:23:40.828Z,25.97
2016-06-04T10:24:41.708Z,26.05
2016-06-04T10:25:40.867Z,26.1
2016-06-04T10:26:40.870Z,26.17
2016-06-04T10:27:41.718Z,26.21
2016-06-04T10:28:41.173Z,26.21
2016-06-04T10:29:41.146Z,26.15
2016-06-04T10:30:55.023Z,26.09
2016-06-04T10:31:41.213Z,25.98
2016-06-04T10:33:41.421Z,25.94
2016-06-04T10:34:41.424Z,26.05
2016-06-04T10:35:41.505Z,25.98
2016-06-04T10:36:41.289Z,25.99
2016-06-04T10:37:42.885Z,25.97
2016-06-04T10:38:41.951Z,26.06
2016-06-04T10:39:41.157Z,26.2
2016-06-04T10:40:55.628Z,26.26
2016-06-04T10:41:41.365Z,26.28
2016-06-04T10:42:43.477Z,26.39
2016-06-04T10:43:41.480Z,26.45
2016-06-04T10:44:41.982Z,26.54
2016-06-04T10:45:41.204Z,26.57
2016-06-04T10:46:41.128Z,26.67
2016-06-04T10:47:55.523Z,26.75
2016-06-04T10:48:41.290Z,26.75
2016-06-04T10:49:41.339Z,26.73
2016-06-04T10:50:41.311Z,26.69
2016-06-04T10:51:41.736Z,26.63
2016-06-04T10:52:42.442Z,26.75
2016-06-04T10:53:41.772Z,26.75
2016-06-04T10:54:41.353Z,26.82
2016-06-04T10:55:43.324Z,26.84
2016-06-04T10:56:41.405Z,26.89
2016-06-04T10:57:41.674Z,26.92
2016-06-04T10:58:41.441Z,26.95
2016-06-04T10:59:41.461Z,27.02
2016-06-04T11:01:42.435Z,27.07
2016-06-04T11:02:41.516Z,27.14
2016-06-04T11:03:41.519Z,27.1
2016-06-04T11:04:41.568Z,27.09
2016-06-04T11:05:41.758Z,27.02
2016-06-04T11:06:41.557Z,26.94
2016-06-04T11:07:42.076Z,26.97
2016-06-04T11:08:41.641Z,26.97
2016-06-04T11:09:41.674Z,27
2016-06-04T11:10:41.912Z,26.92
2016-06-04T11:11:56.164Z,26.89
2016-06-04T11:12:41.715Z,26.84
2016-06-04T11:13:43.060Z,26.84
2016-06-04T11:14:42.313Z,26.82
2016-06-04T11:15:42.160Z,26.77
2016-06-04T11:16:42.226Z,26.67
2016-06-04T11:17:42.446Z,26.69
2016-06-04T11:18:41.996Z,26.58
2016-06-04T11:19:42.046Z,26.51
2016-06-04T11:20:56.501Z,26.43
2016-06-04T11:21:41.832Z,26.36
2016-06-04T11:22:55.475Z,26.2
2016-06-04T11:23:41.900Z,26.18
2016-06-04T11:24:41.856Z,26.15
2016-06-04T11:25:41.922Z,26.07
2016-06-04T11:26:41.939Z,26.1
2016-06-04T11:28:41.961Z,26.09
2016-06-04T11:29:41.964Z,25.92
2016-06-04T11:30:55.810Z,25.9
2016-06-04T11:31:42.438Z,25.9
2016-06-04T11:32:41.736Z,25.88
2016-06-04T11:33:42.458Z,25.8
2016-06-04T11:34:42.055Z,25.8
2016-06-04T11:35:56.589Z,25.79
2016-06-04T11:36:41.810Z,25.73
2016-06-04T11:37:42.234Z,25.75
2016-06-04T11:38:42.128Z,25.64
2016-06-04T11:39:56.427Z,25.65
2016-06-04T11:40:42.352Z,25.67
2016-06-04T11:41:42.401Z,25.65
2016-06-04T11:42:42.217Z,25.65
2016-06-04T11:43:42.187Z,25.7
2016-06-04T11:44:42.801Z,25.65
2016-06-04T11:45:42.225Z,25.55
2016-06-04T11:46:42.648Z,25.55
2016-06-04T11:48:42.499Z,25.58
2016-06-04T11:49:42.298Z,25.55
2016-06-04T11:50:42.957Z,25.54
2016-06-04T11:51:42.382Z,25.54
2016-06-04T11:52:42.369Z,25.58
2016-06-04T11:54:42.593Z,25.65
2016-06-04T11:55:42.408Z,25.73
2016-06-04T11:56:42.910Z,25.82
2016-06-04T11:57:42.726Z,25.98
2016-06-04T11:58:42.291Z,26.06
2016-06-04T11:59:42.466Z,26.23
2016-06-04T12:00:42.484Z,26.25
2016-06-04T12:01:42.736Z,26.2
2016-06-04T12:02:42.521Z,26.29
2016-06-04T12:03:56.538Z,26.43
2016-06-04T12:04:42.761Z,26.51
2016-06-04T12:05:42.544Z,26.57
2016-06-04T12:06:44.813Z,26.7
2016-06-04T12:07:42.799Z,26.81
2016-06-04T12:08:56.709Z,26.91
2016-06-04T12:09:42.836Z,27
2016-06-04T12:11:44.201Z,27.27
2016-06-04T12:12:42.688Z,27.43
2016-06-04T12:13:42.894Z,27.55
2016-06-04T12:14:43.162Z,27.63
2016-06-04T12:15:42.759Z,27.85
2016-06-04T12:16:42.293Z,27.99
2016-06-04T12:17:42.998Z,28.06
2016-06-04T12:18:42.767Z,28.17
2016-06-04T12:19:56.879Z,28.25
2016-06-04T12:21:42.868Z,28.4
2016-06-04T12:22:42.856Z,28.52
2016-06-04T12:23:42.827Z,28.59
2016-06-04T12:24:42.892Z,28.71
2016-06-04T12:25:43.567Z,28.81
2016-06-04T12:26:42.913Z,28.88
2016-06-04T12:27:43.760Z,29.02
2016-06-04T12:28:58.247Z,29.21
2016-06-04T12:29:43.578Z,29.16
2016-06-04T12:30:43.002Z,29.34
2016-06-04T12:31:43.224Z,29.58
2016-06-04T12:32:57.523Z,29.63
2016-06-04T12:33:43.260Z,29.63
2016-06-04T12:34:57.388Z,29.64
2016-06-04T12:35:43.094Z,29.68
2016-06-04T12:36:43.769Z,29.65
2016-06-04T12:37:43.786Z,29.6
2016-06-04T12:38:57.461Z,29.49
2016-06-04T12:39:43.199Z,29.48
2016-06-04T12:40:43.201Z,29.46
2016-06-04T12:41:57.688Z,29.36
2016-06-04T12:42:43.316Z,29.34
2016-06-04T12:43:43.474Z,29.33
2016-06-04T12:45:43.479Z,29.09
2016-06-04T12:46:43.546Z,29.02
2016-06-04T12:47:43.548Z,28.96
2016-06-04T12:48:43.566Z,28.74
2016-06-04T12:49:57.428Z,28.61
2016-06-04T12:51:43.403Z,28.25
2016-06-04T12:52:43.623Z,27.96
2016-06-04T12:53:43.876Z,27.6
2016-06-04T12:54:43.911Z,27.24
2016-06-04T12:55:57.976Z,26.84
2016-06-04T12:56:44.322Z,26.58
2016-06-04T12:57:43.512Z,26.35
2016-06-04T12:58:43.765Z,26.21
2016-06-04T12:59:57.642Z,25.88
2016-06-04T13:00:43.598Z,25.64
2016-06-04T13:01:43.867Z,25.42
2016-06-04T13:02:43.808Z,25.21
2016-06-04T13:04:43.500Z,24.73
2016-06-04T13:05:43.675Z,24.58
2016-06-04T13:06:43.677Z,24.32
2016-06-04T13:07:43.242Z,24.24
2016-06-04T13:08:57.791Z,24.03
2016-06-04T13:09:43.701Z,23.88
2016-06-04T13:10:43.954Z,23.76
2016-06-04T13:12:13.769Z,23.61
2016-06-04T13:12:43.756Z,23.66
2016-06-04T13:13:44.071Z,23.54
2016-06-04T13:14:43.979Z,23.43
2016-06-04T13:15:43.796Z,23.31
2016-06-04T13:16:58.126Z,23.27
2016-06-04T13:17:44.035Z,23.31
2016-06-04T13:18:43.835Z,23.2
2016-06-04T13:19:44.103Z,23.19
2016-06-04T13:20:43.917Z,23.15
2016-06-04T13:21:43.921Z,23.12
2016-06-04T13:22:44.204Z,23.07
2016-06-04T13:23:43.926Z,23.05
2016-06-04T13:24:43.959Z,23.02
2016-06-04T13:25:43.932Z,22.97
2016-06-04T13:26:44.903Z,22.92
2016-06-04T13:27:44.171Z,23.01
2016-06-04T13:28:44.189Z,22.97
2016-06-04T13:29:44.005Z,22.94
2016-06-04T13:30:43.992Z,23
2016-06-04T13:31:44.651Z,23
2016-06-04T13:32:43.778Z,22.91
2016-06-04T13:33:45.062Z,22.97
2016-06-04T13:34:58.144Z,23.05
2016-06-04T13:35:44.302Z,23.07
2016-06-04T13:36:58.164Z,23.15
2016-06-04T13:37:44.355Z,23.15
2016-06-04T13:38:43.951Z,23.2
2016-06-04T13:39:44.578Z,23.27
2016-06-04T13:40:44.159Z,23.25
2016-06-04T13:42:44.180Z,23.28
2016-06-04T13:43:45.980Z,23.27
2016-06-04T13:46:44.441Z,23.32
2016-06-04T13:47:44.429Z,23.28
2016-06-04T13:48:58.743Z,23.2
2016-06-04T13:49:44.480Z,23.22